Time;durP1;ratioP1;P1;durP2;ratioP2;P2;SDS_P1;SDS_P2;PMS_P1;PMS_P2;Temp;Humidity;BMP_temperature;BMP_pressure;BME280_temperature;BME280_humidity;BME280_pressure;Samples;Min_cycle;Max_cycle;Signal;HPM_P1;HPM_P2
2022/12/17 13:06:35;;;;;;;94.70;33.70;;;;;;;-3.61;100.00;102417.38;4965540;28;20118;-79
2022/12/17 13:09:15;;;;;;;88.05;32.55;;;;;;;-3.54;100.00;102411.34;4960692;28;20054;-79
2022/12/17 13:12:03;;;;;;;100.30;31.65;;;;;;;-3.52;100.00;102401.16;4977076;28;20383;-79
2022/12/17 13:14:52;;;;;;;95.30;32.55;;;;;;;-3.67;100.00;102401.41;4965790;28;20526;-80
2022/12/17 13:17:17;;;;;;;89.30;31.77;;;;;;;-3.60;100.00;102400.44;4948826;28;20038;-80
2022/12/17 13:19:46;;;;;;;83.82;31.83;;;;;;;-3.68;100.00;102400.56;4967311;28;20122;-79
2022/12/17 13:22:11;;;;;;;93.72;34.45;;;;;;;-3.63;100.00;102398.81;4966561;28;20041;-79
2022/12/17 13:24:37;;;;;;;93.75;36.03;;;;;;;-3.63;100.00;102406.41;4944621;28;20031;-79
2022/12/17 13:27:03;;;;;;;77.50;30.73;;;;;;;-3.55;100.00;102402.03;4964492;28;20632;-79
2022/12/17 13:29:33;;;;;;;85.70;33.15;;;;;;;-3.58;100.00;102407.19;4966883;28;20035;-79
2022/12/17 13:32:17;;;;;;;83.95;32.28;;;;;;;-3.53;100.00;102397.78;4970279;28;20035;-80
2022/12/17 13:34:54;;;;;;;87.60;31.70;;;;;;;-3.58;100.00;102388.56;4951806;28;20235;-79
2022/12/17 13:37:29;;;;;;;90.80;31.83;;;;;;;-3.59;100.00;102402.97;4983770;28;20113;-80
2022/12/17 13:40:12;;;;;;;87.63;30.55;;;;;;;-3.57;100.00;102396.16;4965754;28;20046;-80
2022/12/17 13:42:38;;;;;;;83.93;35.20;;;;;;;-3.65;100.00;102387.84;4968383;28;20035;-79
2022/12/17 13:45:04;;;;;;;97.35;38.78;;;;;;;-3.64;100.00;102388.69;4969198;28;20041;-79
2022/12/17 13:47:33;;;;;;;83.72;34.95;;;;;;;-3.69;100.00;102396.38;4971792;28;20084;-79
2022/12/17 13:50:01;;;;;;;86.72;34.53;;;;;;;-3.65;100.00;102385.31;4967807;28;20400;-79
2022/12/17 13:52:29;;;;;;;82.75;31.50;;;;;;;-3.57;100.00;102391.09;4970512;28;20085;-80
2022/12/17 13:55:08;;;;;;;86.07;33.65;;;;;;;-3.76;99.76;102388.03;4982786;28;20126;-80
2022/12/17 13:57:36;;;;;;;88.05;33.60;;;;;;;-3.87;100.00;102384.81;4965428;28;20027;-79
2022/12/17 14:00:04;;;;;;;93.78;35.75;;;;;;;-3.79;100.00;102395.66;4964167;28;20039;-80
2022/12/17 14:02:38;;;;;;;87.43;32.80;;;;;;;-3.79;100.00;102395.66;4963755;28;20117;-80
2022/12/17 14:05:06;;;;;;;79.90;32.20;;;;;;;-3.81;100.00;102397.38;4957256;28;20118;-79
2022/12/17 14:07:34;;;;;;;80.40;33.55;;;;;;;-3.75;100.00;102402.38;4964606;28;20062;-81
2022/12/17 14:10:01;;;;;;;77.53;31.02;;;;;;;-3.72;100.00;102396.41;4972175;28;20494;-80
2022/12/17 14:12:28;;;;;;;92.90;35.38;;;;;;;-3.86;100.00;102399.19;4969673;28;20042;-79
2022/12/17 14:14:57;;;;;;;90.75;33.67;;;;;;;-3.75;100.00;102396.44;4967233;28;20035;-79
2022/12/17 14:17:39;;;;;;;81.85;32.20;;;;;;;-3.80;100.00;102406.69;4965250;28;20031;-79
2022/12/17 14:20:14;;;;;;;79.63;31.00;;;;;;;-3.99;100.00;102406.13;4984699;28;20129;-79
2022/12/17 14:22:43;;;;;;;82.30;31.27;;;;;;;-3.86;100.00;102398.31;4978612;28;20061;-80
2022/12/17 14:25:15;;;;;;;84.40;32.50;;;;;;;-3.96;100.00;102402.69;4977600;28;20448;-81
2022/12/17 14:27:51;;;;;;;85.25;31.75;;;;;;;-4.02;100.00;102405.34;4966730;28;20653;-80
2022/12/17 14:30:20;;;;;;;81.75;32.90;;;;;;;-4.14;100.00;102409.72;4964355;28;20049;-80
2022/12/17 14:32:47;;;;;;;90.80;33.45;;;;;;;-4.05;100.00;102407.91;4982692;28;20053;-80
2022/12/17 14:35:27;;;;;;;98.45;35.40;;;;;;;-4.03;100.00;102411.25;4968684;28;20018;-80
2022/12/17 14:37:52;;;;;;;81.38;33.13;;;;;;;-4.06;100.00;102411.31;4964838;28;20550;-81
2022/12/17 14:40:18;;;;;;;86.40;32.33;;;;;;;-4.11;100.00;102414.75;4969822;28;20031;-79
2022/12/17 14:42:44;;;;;;;80.35;33.65;;;;;;;-4.25;100.00;102413.28;4962077;28;20055;-80
2022/12/17 14:45:12;;;;;;;84.57;34.25;;;;;;;-4.32;100.00;102418.41;4965823;28;20045;-79
2022/12/17 14:47:38;;;;;;;77.10;31.77;;;;;;;-4.27;100.00;102420.06;4973485;28;20086;-80
2022/12/17 14:50:12;;;;;;;89.22;33.95;;;;;;;-4.38;100.00;102415.13;4946426;28;20102;-80
2022/12/17 14:52:52;;;;;;;92.88;35.15;;;;;;;-4.41;100.00;102413.44;4960715;28;21508;-80
2022/12/17 14:55:24;;;;;;;85.78;35.28;;;;;;;-4.32;100.00;102425.16;4969588;28;20085;-80
2022/12/17 14:57:51;;;;;;;92.67;38.70;;;;;;;-4.38;100.00;102427.78;4966440;28;20046;-80
2022/12/17 15:00:17;;;;;;;91.72;36.42;;;;;;;-4.38;100.00;102420.19;4964660;28;20039;-79
2022/12/17 15:02:46;;;;;;;96.53;37.40;;;;;;;-4.32;100.00;102426.00;4967415;28;20656;-81
2022/12/17 15:05:14;;;;;;;86.55;34.53;;;;;;;-4.28;100.00;102420.91;4967628;28;20660;-81
2022/12/17 15:07:39;;;;;;;83.40;33.65;;;;;;;-4.37;100.00;102417.66;4965187;28;20126;-80
2022/12/17 15:10:12;;;;;;;81.63;32.50;;;;;;;-4.33;100.00;102431.94;4957513;28;20142;-80
2022/12/17 15:12:40;;;;;;;86.65;34.78;;;;;;;-4.31;100.00;102417.56;4982118;28;20046;-83
2022/12/17 15:15:06;;;;;;;93.45;37.58;;;;;;;-4.31;100.00;102421.78;4968140;28;20038;-80
2022/12/17 15:17:32;;;;;;;87.13;33.88;;;;;;;-4.33;100.00;102426.88;4962627;28;20418;-80
2022/12/17 15:19:57;;;;;;;88.65;35.70;;;;;;;-4.35;100.00;102431.13;4948426;28;20078;-80
2022/12/17 15:22:23;;;;;;;88.47;34.30;;;;;;;-4.35;100.00;102433.66;4974301;28;20086;-81
2022/12/17 15:24:48;;;;;;;84.88;33.00;;;;;;;-4.40;100.00;102427.81;4982468;28;20062;-82
2022/12/17 15:27:15;;;;;;;76.38;31.65;;;;;;;-4.41;100.00;102431.19;4963535;28;20511;-81
2022/12/17 15:29:43;;;;;;;79.63;32.25;;;;;;;-4.43;100.00;102424.47;4968714;28;20031;-81
2022/12/17 15:32:20;;;;;;;75.25;30.55;;;;;;;-4.44;100.00;102428.72;4965375;28;20444;-81
2022/12/17 15:34:46;;;;;;;79.30;32.05;;;;;;;-4.41;100.00;102427.81;4950769;28;20163;-81
2022/12/17 15:37:13;;;;;;;69.35;30.15;;;;;;;-4.51;100.00;102429.63;4969588;28;20038;-81
2022/12/17 15:39:38;;;;;;;75.70;29.67;;;;;;;-4.59;100.00;102437.34;4972168;28;20047;-81
2022/12/17 15:44:48;;;;;;;73.28;30.65;;;;;;;-4.50;100.00;102434.69;4975321;28;20035;-82
2022/12/17 15:47:13;;;;;;;80.82;31.92;;;;;;;-4.62;100.00;102431.47;4964522;28;20042;-81
2022/12/17 15:49:39;;;;;;;79.20;30.15;;;;;;;-4.73;100.00;102436.66;4963496;28;20051;-82
2022/12/17 15:52:04;;;;;;;82.90;31.30;;;;;;;-4.81;100.00;102436.72;4962223;28;20035;-81
2022/12/17 15:54:32;;;;;;;77.88;30.48;;;;;;;-4.86;100.00;102437.63;4962309;28;20518;-82
2022/12/17 15:56:57;;;;;;;78.13;29.83;;;;;;;-4.88;100.00;102445.25;4964865;28;20744;-82
2022/12/17 15:59:23;;;;;;;71.28;29.50;;;;;;;-4.90;100.00;102441.88;4960500;28;20046;-82
2022/12/17 16:01:49;;;;;;;91.68;32.80;;;;;;;-4.93;100.00;102452.91;4966520;28;20059;-82
2022/12/17 16:04:15;;;;;;;81.82;32.38;;;;;;;-5.00;100.00;102448.75;4964062;28;20042;-81
2022/12/17 16:06:40;;;;;;;85.90;32.67;;;;;;;-5.05;100.00;102453.00;4971180;28;20034;-82
2022/12/17 16:09:07;;;;;;;78.55;30.05;;;;;;;-5.13;100.00;102453.09;4965396;28;20042;-81
2022/12/17 16:11:32;;;;;;;87.35;31.73;;;;;;;-5.22;100.00;102452.34;4969208;28;20030;-82
2022/12/17 16:13:59;;;;;;;77.35;29.80;;;;;;;-5.28;100.00;102450.69;4965618;28;20043;-81
2022/12/17 16:16:24;;;;;;;72.68;30.25;;;;;;;-5.30;100.00;102457.47;4967517;28;20046;-81
2022/12/17 16:18:50;;;;;;;85.78;31.88;;;;;;;-5.31;100.00;102459.16;4964315;28;20043;-81
2022/12/17 16:21:16;;;;;;;79.38;30.77;;;;;;;-5.31;100.00;102460.88;4961235;28;20035;-81
2022/12/17 16:23:41;;;;;;;76.20;30.65;;;;;;;-5.33;100.00;102448.22;4968108;28;20520;-81
2022/12/17 16:26:08;;;;;;;84.47;32.20;;;;;;;-5.33;100.00;102457.47;4971895;28;20093;-81
2022/12/17 16:28:34;;;;;;;77.05;29.25;;;;;;;-5.35;100.00;102460.06;4977498;28;20065;-82
2022/12/17 16:31:05;;;;;;;77.43;30.85;;;;;;;-5.36;100.00;102455.00;4964447;28;20063;-81
2022/12/17 16:33:33;;;;;;;81.50;30.60;;;;;;;-5.39;100.00;102462.59;4964520;28;20569;-81
2022/12/17 16:35:58;;;;;;;79.85;29.55;;;;;;;-5.42;100.00;102463.47;4967017;28;20038;-82
2022/12/17 16:38:24;;;;;;;76.60;30.83;;;;;;;-5.46;100.00;102466.88;4963469;28;20158;-81
2022/12/17 16:40:53;;;;;;;76.60;29.85;;;;;;;-5.49;100.00;102467.72;4963735;28;20038;-81
2022/12/17 16:43:19;;;;;;;73.82;31.13;;;;;;;-5.52;100.00;102471.97;4964173;28;20097;-81
2022/12/17 16:45:49;;;;;;;70.18;29.40;;;;;;;-5.57;100.00;102466.97;4958923;28;20038;-81
2022/12/17 16:48:16;;;;;;;74.07;29.20;;;;;;;-5.62;100.00;102466.16;4962885;28;20445;-81
2022/12/17 16:50:43;;;;;;;83.53;30.70;;;;;;;-5.65;100.00;102460.28;4947520;28;20038;-81
2022/12/17 16:53:08;;;;;;;76.22;28.52;;;;;;;-5.71;100.00;102456.09;4964917;28;20066;-81
2022/12/17 16:55:42;;;;;;;84.15;30.13;;;;;;;-5.75;100.00;102465.38;4966401;28;20561;-81
2022/12/17 16:58:10;;;;;;;73.50;30.55;;;;;;;-5.76;100.00;102466.25;4971310;28;20043;-81
2022/12/17 17:00:37;;;;;;;87.72;30.90;;;;;;;-5.79;100.00;102473.00;4964077;28;20108;-80
2022/12/17 17:03:06;;;;;;;74.03;30.52;;;;;;;-5.83;100.00;102468.84;4968887;28;20062;-81
2022/12/17 17:05:33;;;;;;;74.45;26.90;;;;;;;-5.86;100.00;102472.19;4983235;28;20681;-81
2022/12/17 17:07:59;;;;;;;69.22;28.48;;;;;;;-5.87;100.00;102473.91;4966973;28;20147;-80
2022/12/17 17:10:25;;;;;;;75.10;28.70;;;;;;;-5.90;100.00;102478.13;4964672;28;20089;-80
2022/12/17 17:12:51;;;;;;;72.13;28.63;;;;;;;-5.94;100.00;102474.78;4950714;28;20054;-81
2022/12/17 17:15:16;;;;;;;82.15;30.38;;;;;;;-6.00;100.00;102463.91;4968454;28;20723;-81
2022/12/17 17:17:42;;;;;;;81.95;29.95;;;;;;;-6.04;100.00;102468.16;4970649;28;20043;-81
2022/12/17 17:20:08;;;;;;;79.40;32.50;;;;;;;-6.09;100.00;102469.84;4972153;28;20034;-81
2022/12/17 17:22:33;;;;;;;79.90;30.70;;;;;;;-6.14;100.00;102479.13;4965674;28;20034;-81
2022/12/17 17:25:00;;;;;;;71.28;29.02;;;;;;;-6.19;100.00;102481.69;4981165;28;20039;-82
2022/12/17 17:27:25;;;;;;;76.32;28.38;;;;;;;-6.24;100.00;102487.59;4972697;28;20055;-81
2022/12/17 17:29:51;;;;;;;81.68;29.00;;;;;;;-6.29;100.00;102485.09;4967550;28;20042;-81
2022/12/17 17:32:16;;;;;;;75.18;28.52;;;;;;;-6.27;100.00;102480.91;4970275;28;20026;-81
2022/12/17 17:34:42;;;;;;;74.80;27.67;;;;;;;-6.22;100.00;102494.31;4973870;28;20809;-80
2022/12/17 17:37:07;;;;;;;70.07;26.60;;;;;;;-6.31;100.00;102491.81;4966332;28;20043;-80
2022/12/17 17:39:33;;;;;;;71.32;27.77;;;;;;;-6.35;100.00;102495.22;4954994;28;20035;-81
2022/12/17 17:41:59;;;;;;;74.22;29.27;;;;;;;-6.42;100.00;102493.56;4969301;28;20428;-81
2022/12/17 17:44:25;;;;;;;82.28;29.80;;;;;;;-6.44;100.00;102491.06;4965520;28;20035;-81
2022/12/17 17:46:50;;;;;;;76.78;30.42;;;;;;;-6.41;100.00;102498.59;4963105;28;20452;-80
2022/12/17 17:49:16;;;;;;;81.47;29.73;;;;;;;-6.28;100.00;102494.34;4964859;28;20046;-81
2022/12/17 17:51:42;;;;;;;74.35;29.13;;;;;;;-6.30;100.00;102489.31;4973249;28;20499;-80
2022/12/17 17:54:10;;;;;;;76.88;29.33;;;;;;;-6.31;100.00;102481.72;4970285;28;20046;-81
2022/12/17 17:56:39;;;;;;;77.55;28.00;;;;;;;-6.30;100.00;102485.94;4972402;28;20026;-81
2022/12/17 17:59:11;;;;;;;78.70;28.58;;;;;;;-6.27;100.00;102491.81;4978786;28;20055;-81
2022/12/17 18:01:39;;;;;;;72.93;28.40;;;;;;;-6.34;100.00;102492.69;4975953;28;20034;-81
2022/12/17 18:04:08;;;;;;;84.95;27.45;;;;;;;-6.40;100.00;102491.88;4967779;28;20547;-81
2022/12/17 18:06:36;;;;;;;75.57;28.17;;;;;;;-6.35;100.00;102491.00;4972930;28;20580;-81
2022/12/17 18:09:02;;;;;;;77.55;28.85;;;;;;;-6.35;100.00;102493.53;4954189;28;20054;-80
2022/12/17 18:11:29;;;;;;;79.55;29.17;;;;;;;-6.46;100.00;102488.53;4970368;28;20113;-81
2022/12/17 18:13:56;;;;;;;83.05;30.15;;;;;;;-6.37;100.00;102489.34;4975572;28;20103;-80
2022/12/17 18:16:29;;;;;;;79.45;30.23;;;;;;;-6.47;100.00;102491.06;4972789;28;20031;-81
2022/12/17 18:18:57;;;;;;;;;;;;;;;-6.54;100.00;102489.41;4968823;28;20038;-80
2022/12/17 18:21:24;;;;;;;75.82;28.17;;;;;;;-6.57;100.00;102490.25;4970357;28;19914;-81
2022/12/17 18:23:54;;;;;;;75.72;29.65;;;;;;;-6.46;100.00;102505.34;4964268;28;20071;-80
2022/12/17 18:26:21;;;;;;;71.68;27.40;;;;;;;-6.43;100.00;102502.00;4970482;28;20057;-82
2022/12/17 18:28:47;;;;;;;82.40;29.48;;;;;;;-6.50;100.00;102496.97;4949620;28;20093;-79
2022/12/17 18:31:19;;;;;;;69.63;26.95;;;;;;;-6.44;100.00;102498.63;4943812;28;20042;-81
2022/12/17 18:33:46;;;;;;;75.85;28.88;;;;;;;-6.61;100.00;102493.66;4951572;28;20163;-80
2022/12/17 18:36:18;;;;;;;72.30;28.58;;;;;;;-6.61;100.00;102490.25;4963320;28;20027;-79
2022/12/17 18:38:44;;;;;;;79.88;30.73;;;;;;;-6.68;100.00;102495.31;4977925;28;20058;-80
2022/12/17 18:44:03;;;;;;;83.78;29.58;;;;;;;-6.77;100.00;102494.50;4968871;28;20038;-80
2022/12/17 18:46:30;;;;;;;76.35;29.95;;;;;;;-6.80;100.00;102492.81;4967323;28;20034;-81
2022/12/17 18:48:57;;;;;;;74.05;28.67;;;;;;;-6.79;100.00;102499.56;4965689;28;20718;-80
2022/12/17 18:51:24;;;;;;;82.63;29.83;;;;;;;-6.84;100.00;102506.28;4962067;28;20070;-80
2022/12/17 18:53:49;;;;;;;82.03;30.50;;;;;;;-6.91;100.00;102505.47;4953606;28;20066;-80
2022/12/17 18:56:15;;;;;;;75.78;27.95;;;;;;;-6.96;100.00;102507.16;4969809;28;20030;-80
2022/12/17 18:58:41;;;;;;;74.38;30.25;;;;;;;-6.86;100.00;102513.84;4966253;28;20436;-80
2022/12/17 19:01:17;;;;;;;85.60;30.63;;;;;;;-6.80;100.00;102517.22;4970839;28;20026;-80
2022/12/17 19:03:42;;;;;;;79.07;29.90;;;;;;;-6.84;100.00;102516.38;4965059;28;20043;-79
2022/12/17 19:06:08;;;;;;;76.70;29.70;;;;;;;-6.88;100.00;102513.03;4966699;28;20061;-79
2022/12/17 19:08:34;;;;;;;79.43;29.30;;;;;;;-6.75;100.00;102515.53;4966551;28;20097;-79
2022/12/17 19:11:06;;;;;;;70.90;27.45;;;;;;;-6.75;100.00;102513.84;4965333;28;20518;-80
2022/12/17 19:13:32;;;;;;;68.68;25.67;;;;;;;-6.66;100.00;102523.91;4959947;28;20986;-79
2022/12/17 19:16:04;;;;;;;67.82;25.90;;;;;;;-6.53;100.00;102518.84;4965936;28;20034;-79
2022/12/17 19:18:30;;;;;;;66.95;25.95;;;;;;;-6.57;100.00;102525.59;4979133;28;20046;-79
2022/12/17 19:20:57;;;;;;;74.53;26.98;;;;;;;-6.54;100.00;102512.94;4960233;28;20602;-79
2022/12/17 19:23:22;;;;;;;66.03;25.95;;;;;;;-6.54;100.00;102518.00;4962499;28;20054;-79
2022/12/17 19:25:47;;;;;;;72.20;25.13;;;;;;;-6.63;100.00;102512.97;4970344;28;20484;-79
2022/12/17 19:28:13;;;;;;;66.68;26.50;;;;;;;-6.61;100.00;102516.34;4970607;28;20030;-79
2022/12/17 19:30:39;;;;;;;72.10;28.58;;;;;;;-6.63;100.00;102515.50;4970568;28;20035;-77
2022/12/17 19:33:04;;;;;;;72.93;26.55;;;;;;;-6.60;100.00;102518.03;4966809;28;20046;-79
2022/12/17 19:35:30;;;;;;;82.95;27.67;;;;;;;-6.70;100.00;102521.41;4968997;28;20034;-78
2022/12/17 19:37:55;;;;;;;68.53;26.42;;;;;;;-6.67;100.00;102518.88;4950530;28;20317;-79
2022/12/17 19:40:21;;;;;;;70.68;26.15;;;;;;;-6.66;100.00;102515.53;4947825;28;20400;-79
2022/12/17 19:42:47;;;;;;;66.95;26.65;;;;;;;-6.53;100.00;102523.91;4961544;28;20039;-78
2022/12/17 19:45:12;;;;;;;69.55;25.02;;;;;;;-6.50;100.00;102513.78;4968093;28;20869;-78
2022/12/17 19:47:38;;;;;;;73.75;26.90;;;;;;;-6.60;100.00;102520.53;4967016;28;20785;-79
2022/12/17 19:50:04;;;;;;;67.70;24.65;;;;;;;-6.52;100.00;102525.56;4965715;28;20031;-79
2022/12/17 19:52:29;;;;;;;59.83;23.55;;;;;;;-6.50;100.00;102529.78;4968177;28;20117;-79
2022/12/17 19:54:55;;;;;;;69.15;24.60;;;;;;;-6.46;100.00;102531.47;4965682;28;20146;-78
2022/12/17 19:57:20;;;;;;;66.65;27.10;;;;;;;-6.54;100.00;102527.25;4961446;28;20035;-78
2022/12/17 19:59:46;;;;;;;66.20;24.83;;;;;;;-6.49;100.00;102539.03;4958768;28;20043;-79
2022/12/17 20:02:11;;;;;;;66.75;25.35;;;;;;;-6.44;100.00;102535.66;4970580;28;20027;-79
2022/12/17 20:04:37;;;;;;;59.83;24.70;;;;;;;-6.40;100.00;102540.69;4961205;28;20064;-77
2022/12/17 20:07:02;;;;;;;67.68;24.27;;;;;;;-6.47;100.00;102534.81;4961205;28;20039;-79
2022/12/17 20:09:30;;;;;;;58.88;23.27;;;;;;;-6.38;100.00;102535.66;4973926;28;20073;-79
2022/12/17 20:11:55;;;;;;;62.25;23.73;;;;;;;-6.36;100.00;102533.97;4977574;28;20043;-79
2022/12/17 20:14:27;;;;;;;63.55;23.63;;;;;;;-6.41;100.00;102536.47;4958592;28;20039;-79
2022/12/17 20:16:57;;;;;;;63.42;25.17;;;;;;;-6.29;100.00;102538.97;4963613;28;20031;-78
2022/12/17 20:19:26;;;;;;;60.30;24.50;;;;;;;-6.31;100.00;102540.66;4969617;28;20042;-78
2022/12/17 20:21:52;;;;;;;62.13;23.27;;;;;;;-6.31;100.00;102544.84;4968151;28;20074;-78
2022/12/17 20:24:18;;;;;;;64.88;24.42;;;;;;;-6.28;100.00;102547.38;4972173;28;20220;-79
2022/12/17 20:26:45;;;;;;;61.60;23.73;;;;;;;-6.31;100.00;102548.25;4966053;28;20039;-80
2022/12/17 20:29:11;;;;;;;58.90;23.77;;;;;;;-6.36;100.00;102557.50;4963779;28;20089;-79
2022/12/17 20:31:37;;;;;;;64.03;23.75;;;;;;;-6.36;100.00;102544.88;4961244;28;20459;-79
2022/12/17 20:34:04;;;;;;;66.93;24.75;;;;;;;-6.25;100.00;102552.44;4961928;28;20042;-78
2022/12/17 20:36:30;;;;;;;63.83;22.83;;;;;;;-6.22;100.00;102542.31;4980100;28;20039;-81
2022/12/17 20:38:55;;;;;;;64.55;23.60;;;;;;;-6.21;100.00;102551.56;4963799;28;20062;-79
2022/12/17 20:41:24;;;;;;;69.53;24.40;;;;;;;-6.26;100.00;102554.09;4965187;28;20042;-78
2022/12/17 20:43:50;;;;;;;64.85;24.63;;;;;;;-6.28;100.00;102555.78;4966685;28;20062;-78
2022/12/17 20:46:16;;;;;;;58.13;24.20;;;;;;;-6.19;100.00;102564.22;4965896;28;20066;-78
2022/12/17 20:48:42;;;;;;;65.65;24.40;;;;;;;-6.20;100.00;102559.97;4965866;28;20039;-80
2022/12/17 20:51:14;;;;;;;62.45;23.75;;;;;;;-6.24;100.00;102561.69;4975751;28;20101;-78
2022/12/17 20:53:40;;;;;;;63.57;24.23;;;;;;;-6.20;100.00;102565.03;4965260;28;20161;-79
2022/12/17 20:56:09;;;;;;;57.20;22.90;;;;;;;-6.19;100.00;102559.97;4965963;28;20678;-78
2022/12/17 20:58:35;;;;;;;66.30;25.02;;;;;;;-6.19;100.00;102557.47;4966467;28;20049;-78
2022/12/17 21:01:06;;;;;;;56.25;23.25;;;;;;;-6.19;100.00;102569.25;4962356;28;20042;-77
2022/12/17 21:03:33;;;;;;;60.90;23.50;;;;;;;-6.21;100.00;102565.91;4962681;28;20038;-78
2022/12/17 21:06:12;;;;;;;61.10;24.25;;;;;;;-6.26;100.00;102568.41;4964814;28;20041;-79
2022/12/17 21:08:38;;;;;;;66.18;26.70;;;;;;;-6.19;100.00;102571.78;4960415;28;20038;-78
2022/12/17 21:11:05;;;;;;;63.85;24.83;;;;;;;-6.09;100.00;102565.84;4967743;28;20042;-78
2022/12/17 21:13:31;;;;;;;65.88;24.73;;;;;;;-6.05;100.00;102559.91;4954917;28;20034;-79
2022/12/17 21:16:08;;;;;;;61.28;24.45;;;;;;;-6.04;100.00;102553.19;4966104;28;20031;-78
2022/12/17 21:18:34;;;;;;;62.15;22.90;;;;;;;-6.04;100.00;102551.50;4974428;28;20672;-78
2022/12/17 21:21:03;;;;;;;64.78;23.80;;;;;;;-6.10;100.00;102552.38;4961740;28;20035;-79
2022/12/17 21:23:29;;;;;;;59.30;23.58;;;;;;;-6.11;100.00;102545.63;4966068;28;20543;-78
2022/12/17 21:26:03;;;;;;;60.30;24.25;;;;;;;-6.12;100.00;102545.63;4963537;28;20035;-78
2022/12/17 21:28:30;;;;;;;63.10;24.00;;;;;;;-6.14;100.00;102547.31;4962894;28;20035;-78
2022/12/17 21:30:55;;;;;;;59.13;23.13;;;;;;;-6.14;100.00;102540.59;4958397;28;20093;-77
2022/12/17 21:33:21;;;;;;;67.25;25.45;;;;;;;-6.13;100.00;102554.91;4966929;28;20047;-78
2022/12/17 21:35:47;;;;;;;60.10;24.52;;;;;;;-6.08;100.00;102547.31;4967957;28;20061;-77
2022/12/17 21:38:13;;;;;;;67.10;24.05;;;;;;;-6.17;100.00;102550.72;4962092;28;20050;-78
2022/12/17 21:40:38;;;;;;;66.85;26.20;;;;;;;-6.15;100.00;102545.66;4964938;28;20033;-78
2022/12/17 21:43:03;;;;;;;65.15;24.63;;;;;;;-6.18;100.00;102551.53;4960258;28;20089;-77
2022/12/17 21:45:37;;;;;;;61.25;23.58;;;;;;;-6.23;100.00;102545.69;4965579;28;20038;-79
2022/12/17 21:48:04;;;;;;;61.05;23.95;;;;;;;-6.15;100.00;102553.25;4968891;28;20046;-79
2022/12/17 21:50:31;;;;;;;54.85;22.92;;;;;;;-6.14;100.00;102547.31;4975547;28;20029;-78
2022/12/17 21:52:57;;;;;;;64.57;25.35;;;;;;;-6.08;100.00;102558.25;4960106;28;20039;-79
2022/12/17 21:55:22;;;;;;;67.78;23.77;;;;;;;-6.09;100.00;102566.66;4957026;28;20407;-79
2022/12/17 21:57:48;;;;;;;71.47;24.30;;;;;;;-6.14;100.00;102565.00;4966745;28;20054;-78
2022/12/17 22:00:14;;;;;;;57.22;23.38;;;;;;;-6.10;100.00;102565.00;4968977;28;20039;-78
2022/12/17 22:02:39;;;;;;;49.42;23.27;;;;;;;-6.10;100.00;102569.22;4967888;28;20035;-78
2022/12/17 22:05:05;;;;;;;61.35;22.75;;;;;;;-6.11;100.00;102578.47;4966790;28;20026;-79
2022/12/17 22:07:30;;;;;;;60.78;23.73;;;;;;;-6.07;100.00;102580.13;4951035;28;20042;-78
2022/12/17 22:09:56;;;;;;;60.13;23.27;;;;;;;-6.09;100.00;102581.81;4968546;28;20027;-79
2022/12/17 22:15:06;;;;;;;56.63;23.33;;;;;;;-6.07;100.00;102564.97;4970244;28;20049;-78
2022/12/17 22:17:31;;;;;;;57.05;22.33;;;;;;;-6.00;100.00;102575.06;4980531;28;20034;-78
2022/12/17 22:19:57;;;;;;;59.67;22.83;;;;;;;-6.04;100.00;102575.94;4964419;28;20027;-79
2022/12/17 22:22:22;;;;;;;52.30;22.77;;;;;;;-6.12;100.00;102574.28;4962344;28;20038;-79
2022/12/17 22:24:47;;;;;;;56.63;23.27;;;;;;;-6.01;100.00;102575.91;4964944;28;20085;-78
2022/12/17 22:27:13;;;;;;;50.97;22.15;;;;;;;-6.03;100.00;102590.25;4964904;28;20042;-80
2022/12/17 22:35:08;;;;;;;58.90;23.20;;;;;;;-6.05;100.00;102602.03;4967002;28;20380;-79
2022/12/17 22:37:33;;;;;;;57.10;22.50;;;;;;;-6.04;100.00;102598.69;4949093;28;20045;-78
2022/12/17 22:39:59;;;;;;;55.20;22.33;;;;;;;-6.07;100.00;102597.81;4985187;28;20587;-79
2022/12/17 22:45:09;;;;;;;58.88;23.73;;;;;;;-6.16;100.00;102610.50;4961004;28;20049;-78
2022/12/17 22:47:34;;;;;;;51.58;22.05;;;;;;;-6.28;100.00;102610.53;4951351;28;20077;-80
2022/12/17 22:50:00;;;;;;;54.10;22.00;;;;;;;-6.25;100.00;102608.00;4972486;28;20575;-79
2022/12/17 22:52:26;;;;;;;51.55;20.67;;;;;;;-6.21;100.00;102609.66;4966070;28;20042;-78
2022/12/17 22:54:52;;;;;;;55.03;21.42;;;;;;;-6.27;100.00;102602.13;4962077;28;20062;-78
2022/12/17 22:57:18;;;;;;;59.15;22.95;;;;;;;-6.22;100.00;102604.63;4963043;28;20039;-78
2022/12/17 22:59:43;;;;;;;62.83;21.48;;;;;;;-6.19;100.00;102609.66;4964230;28;20043;-78
2022/12/17 23:02:10;;;;;;;54.35;21.75;;;;;;;-6.08;100.00;102603.72;4963508;28;20405;-79
2022/12/17 23:04:35;;;;;;;59.30;21.63;;;;;;;-6.19;100.00;102609.66;4961476;28;20050;-79
2022/12/17 23:07:01;;;;;;;52.15;20.20;;;;;;;-6.15;100.00;102603.75;4962381;28;20395;-78
2022/12/17 23:09:27;;;;;;;51.25;20.70;;;;;;;-6.08;100.00;102597.84;4967692;28;20043;-78
2022/12/17 23:11:52;;;;;;;59.70;21.83;;;;;;;-6.19;100.00;102595.34;4973750;28;20045;-77
2022/12/17 23:14:18;;;;;;;53.65;20.67;;;;;;;-6.20;100.00;102606.28;4966746;28;20050;-78
2022/12/17 23:16:44;;;;;;;54.65;21.92;;;;;;;-6.20;100.00;102601.22;4965743;28;20037;-79
2022/12/17 23:19:09;;;;;;;50.35;19.48;;;;;;;-6.20;100.00;102593.66;4967891;28;20496;-79
2022/12/17 23:21:35;;;;;;;51.90;20.38;;;;;;;-6.09;99.80;102599.50;4952725;28;20158;-78
2022/12/17 23:24:00;;;;;;;51.67;20.70;;;;;;;-6.11;99.65;102593.63;4964623;28;20078;-79
2022/12/17 23:26:29;;;;;;;54.80;18.77;;;;;;;-6.24;99.58;102596.19;4966313;28;20038;-78
2022/12/17 23:28:57;;;;;;;52.28;19.67;;;;;;;-6.24;99.89;102597.03;4956081;28;20155;-79
2022/12/17 23:31:24;;;;;;;47.80;18.98;;;;;;;-6.12;99.77;102591.97;4962392;28;20103;-78
2022/12/17 23:33:50;;;;;;;49.40;19.77;;;;;;;-6.21;99.53;102599.56;4967663;28;20034;-78
2022/12/17 23:36:18;;;;;;;49.92;19.60;;;;;;;-6.13;99.39;102602.06;4973795;28;20396;-79
2022/12/17 23:38:45;;;;;;;43.38;17.95;;;;;;;-6.22;99.00;102599.56;4971599;28;20053;-78
2022/12/17 23:41:14;;;;;;;43.30;18.17;;;;;;;-6.17;98.52;102602.94;4970773;28;20780;-78
2022/12/17 23:43:39;;;;;;;50.83;18.45;;;;;;;-6.19;98.47;102595.34;4967519;28;20054;-79
2022/12/17 23:46:06;;;;;;;57.58;19.83;;;;;;;-6.22;98.00;102597.03;4970990;28;20054;-78
2022/12/17 23:48:35;;;;;;;48.20;18.67;;;;;;;-6.24;98.04;102603.78;4965219;28;20529;-78
2022/12/17 23:51:02;;;;;;;50.72;19.30;;;;;;;-6.24;97.86;102599.56;4978542;28;20046;-78
2022/12/17 23:53:29;;;;;;;46.40;18.15;;;;;;;-6.29;97.94;102597.06;4966275;28;20411;-79
2022/12/17 23:55:54;;;;;;;45.50;17.77;;;;;;;-6.32;97.59;102592.00;4969952;28;20066;-78
2022/12/17 23:58:20;;;;;;;49.67;18.20;;;;;;;-6.43;98.07;102595.41;4965461;28;20070;-79
